sensor_id;sensor_type;location;lat;lon;timestamp;temperature;humidity
60293;DHT22;52402;52.670;6.750;2023-11-19T00:00:38;10.40;99.90
60293;DHT22;52402;52.670;6.750;2023-11-19T00:03:04;10.50;99.90
60293;DHT22;52402;52.670;6.750;2023-11-19T00:05:31;10.50;99.90
60293;DHT22;52402;52.670;6.750;2023-11-19T00:07:56;10.50;99.90
60293;DHT22;52402;52.670;6.750;2023-11-19T00:10:22;10.50;99.90
60293;DHT22;52402;52.670;6.750;2023-11-19T00:12:49;10.50;99.90
60293;DHT22;52402;52.670;6.750;2023-11-19T00:15:16;10.60;99.90
60293;DHT22;52402;52.670;6.750;2023-11-19T00:17:45;10.60;99.90
60293;DHT22;52402;52.670;6.750;2023-11-19T00:20:12;10.60;99.90
60293;DHT22;52402;52.670;6.750;2023-11-19T00:22:37;10.70;99.90
60293;DHT22;52402;52.670;6.750;2023-11-19T00:25:06;10.70;99.90
60293;DHT22;52402;52.670;6.750;2023-11-19T00:27:32;10.70;99.90
60293;DHT22;52402;52.670;6.750;2023-11-19T00:29:57;10.80;99.90
60293;DHT22;52402;52.670;6.750;2023-11-19T00:32:23;10.80;99.90
60293;DHT22;52402;52.670;6.750;2023-11-19T00:34:49;10.80;99.90
60293;DHT22;52402;52.670;6.750;2023-11-19T00:37:15;10.80;99.90
60293;DHT22;52402;52.670;6.750;2023-11-19T00:39:41;10.90;99.90
60293;DHT22;52402;52.670;6.750;2023-11-19T00:42:07;10.90;99.90
60293;DHT22;52402;52.670;6.750;2023-11-19T00:44:33;10.90;99.90
60293;DHT22;52402;52.670;6.750;2023-11-19T00:47:02;10.90;99.90
60293;DHT22;52402;52.670;6.750;2023-11-19T00:49:30;11.00;99.90
60293;DHT22;52402;52.670;6.750;2023-11-19T00:51:58;11.00;99.90
60293;DHT22;52402;52.670;6.750;2023-11-19T00:54:30;11.00;99.90
60293;DHT22;52402;52.670;6.750;2023-11-19T00:56:57;11.00;99.90
60293;DHT22;52402;52.670;6.750;2023-11-19T00:59:29;11.10;99.90
60293;DHT22;52402;52.670;6.750;2023-11-19T01:01:57;11.10;99.90
60293;DHT22;52402;52.670;6.750;2023-11-19T01:04:23;11.10;99.90
60293;DHT22;52402;52.670;6.750;2023-11-19T01:06:49;11.10;99.90
60293;DHT22;52402;52.670;6.750;2023-11-19T01:09:15;11.00;99.90
60293;DHT22;52402;52.670;6.750;2023-11-19T01:11:41;11.00;99.90
60293;DHT22;52402;52.670;6.750;2023-11-19T01:14:06;11.00;99.90
60293;DHT22;52402;52.670;6.750;2023-11-19T01:16:32;11.10;99.90
60293;DHT22;52402;52.670;6.750;2023-11-19T01:18:58;11.10;99.90
60293;DHT22;52402;52.670;6.750;2023-11-19T01:21:26;11.00;99.90
60293;DHT22;52402;52.670;6.750;2023-11-19T01:23:51;11.00;99.90
60293;DHT22;52402;52.670;6.750;2023-11-19T01:26:17;11.00;99.90
60293;DHT22;52402;52.670;6.750;2023-11-19T01:28:42;11.00;99.90
60293;DHT22;52402;52.670;6.750;2023-11-19T01:31:12;11.00;99.90
60293;DHT22;52402;52.670;6.750;2023-11-19T01:33:40;11.10;99.90
60293;DHT22;52402;52.670;6.750;2023-11-19T01:36:09;11.10;99.90
60293;DHT22;52402;52.670;6.750;2023-11-19T01:38:40;11.20;99.90
60293;DHT22;52402;52.670;6.750;2023-11-19T01:41:12;11.20;99.90
60293;DHT22;52402;52.670;6.750;2023-11-19T01:43:40;11.20;99.90
60293;DHT22;52402;52.670;6.750;2023-11-19T01:46:11;11.20;99.90
60293;DHT22;52402;52.670;6.750;2023-11-19T01:48:42;11.20;99.90
60293;DHT22;52402;52.670;6.750;2023-11-19T01:51:13;11.20;99.90
60293;DHT22;52402;52.670;6.750;2023-11-19T01:53:44;11.30;99.90
60293;DHT22;52402;52.670;6.750;2023-11-19T01:56:12;11.20;99.90
60293;DHT22;52402;52.670;6.750;2023-11-19T01:58:39;11.20;99.90
60293;DHT22;52402;52.670;6.750;2023-11-19T02:01:06;11.10;99.90
60293;DHT22;52402;52.670;6.750;2023-11-19T02:03:33;11.10;99.90
60293;DHT22;52402;52.670;6.750;2023-11-19T02:06:02;11.20;99.90
60293;DHT22;52402;52.670;6.750;2023-11-19T02:08:33;11.20;99.90
60293;DHT22;52402;52.670;6.750;2023-11-19T02:10:59;11.20;99.90
60293;DHT22;52402;52.670;6.750;2023-11-19T02:13:30;11.20;99.90
60293;DHT22;52402;52.670;6.750;2023-11-19T02:15:55;11.20;99.90
60293;DHT22;52402;52.670;6.750;2023-11-19T02:18:27;11.30;99.90
60293;DHT22;52402;52.670;6.750;2023-11-19T02:20:59;11.30;99.90
60293;DHT22;52402;52.670;6.750;2023-11-19T02:23:28;11.20;99.90
60293;DHT22;52402;52.670;6.750;2023-11-19T02:28:35;11.20;99.90
60293;DHT22;52402;52.670;6.750;2023-11-19T02:31:01;11.30;99.90
60293;DHT22;52402;52.670;6.750;2023-11-19T02:33:26;11.20;99.90
60293;DHT22;52402;52.670;6.750;2023-11-19T02:35:52;11.20;99.90
60293;DHT22;52402;52.670;6.750;2023-11-19T02:38:17;11.30;99.90
60293;DHT22;52402;52.670;6.750;2023-11-19T02:40:43;11.30;99.90
60293;DHT22;52402;52.670;6.750;2023-11-19T02:43:08;11.30;99.90
60293;DHT22;52402;52.670;6.750;2023-11-19T02:45:34;11.40;99.90
60293;DHT22;52402;52.670;6.750;2023-11-19T02:48:01;11.40;99.90
60293;DHT22;52402;52.670;6.750;2023-11-19T02:50:27;11.40;99.90
60293;DHT22;52402;52.670;6.750;2023-11-19T02:52:54;11.50;99.90
60293;DHT22;52402;52.670;6.750;2023-11-19T02:55:22;11.50;99.90
60293;DHT22;52402;52.670;6.750;2023-11-19T02:57:54;11.50;99.90
60293;DHT22;52402;52.670;6.750;2023-11-19T03:00:22;11.50;99.90
60293;DHT22;52402;52.670;6.750;2023-11-19T03:03:01;11.40;99.90
60293;DHT22;52402;52.670;6.750;2023-11-19T03:05:42;11.40;99.90
60293;DHT22;52402;52.670;6.750;2023-11-19T03:08:10;11.50;99.90
60293;DHT22;52402;52.670;6.750;2023-11-19T03:10:35;11.50;99.90
60293;DHT22;52402;52.670;6.750;2023-11-19T03:13:01;11.50;99.90
60293;DHT22;52402;52.670;6.750;2023-11-19T03:15:27;11.50;99.90
60293;DHT22;52402;52.670;6.750;2023-11-19T03:17:53;11.50;99.90
60293;DHT22;52402;52.670;6.750;2023-11-19T03:20:19;11.50;99.90
60293;DHT22;52402;52.670;6.750;2023-11-19T03:22:46;11.50;99.90
60293;DHT22;52402;52.670;6.750;2023-11-19T03:25:12;11.50;99.90
60293;DHT22;52402;52.670;6.750;2023-11-19T03:27:39;11.50;99.90
60293;DHT22;52402;52.670;6.750;2023-11-19T03:30:07;11.50;99.90
60293;DHT22;52402;52.670;6.750;2023-11-19T03:32:38;11.50;99.90
60293;DHT22;52402;52.670;6.750;2023-11-19T03:35:05;11.50;99.90
60293;DHT22;52402;52.670;6.750;2023-11-19T03:37:33;11.40;99.90
60293;DHT22;52402;52.670;6.750;2023-11-19T03:40:06;11.40;99.90
60293;DHT22;52402;52.670;6.750;2023-11-19T03:42:38;11.40;99.90
60293;DHT22;52402;52.670;6.750;2023-11-19T03:45:06;11.40;99.90
60293;DHT22;52402;52.670;6.750;2023-11-19T03:47:38;11.40;99.90
60293;DHT22;52402;52.670;6.750;2023-11-19T03:50:07;11.50;99.90
60293;DHT22;52402;52.670;6.750;2023-11-19T03:52:36;11.50;99.90
60293;DHT22;52402;52.670;6.750;2023-11-19T03:55:04;11.50;99.90
60293;DHT22;52402;52.670;6.750;2023-11-19T03:57:31;11.50;99.90
60293;DHT22;52402;52.670;6.750;2023-11-19T03:59:56;11.50;99.90
60293;DHT22;52402;52.670;6.750;2023-11-19T04:02:23;11.50;99.90
60293;DHT22;52402;52.670;6.750;2023-11-19T04:04:53;11.50;99.90
60293;DHT22;52402;52.670;6.750;2023-11-19T04:07:20;11.40;99.90
60293;DHT22;52402;52.670;6.750;2023-11-19T04:09:45;11.40;99.90
60293;DHT22;52402;52.670;6.750;2023-11-19T04:12:12;11.40;99.90
60293;DHT22;52402;52.670;6.750;2023-11-19T04:14:37;11.40;99.90
60293;DHT22;52402;52.670;6.750;2023-11-19T04:17:03;11.40;99.90
60293;DHT22;52402;52.670;6.750;2023-11-19T04:19:29;11.40;99.90
60293;DHT22;52402;52.670;6.750;2023-11-19T04:21:54;11.40;99.90
60293;DHT22;52402;52.670;6.750;2023-11-19T04:24:20;11.40;99.90
60293;DHT22;52402;52.670;6.750;2023-11-19T04:26:46;11.40;99.90
60293;DHT22;52402;52.670;6.750;2023-11-19T04:29:16;11.40;99.90
60293;DHT22;52402;52.670;6.750;2023-11-19T04:31:43;11.40;99.90
60293;DHT22;52402;52.670;6.750;2023-11-19T04:34:11;11.40;99.90
60293;DHT22;52402;52.670;6.750;2023-11-19T04:36:39;11.40;99.90
60293;DHT22;52402;52.670;6.750;2023-11-19T04:39:07;11.40;99.90
60293;DHT22;52402;52.670;6.750;2023-11-19T04:41:50;11.40;99.90
60293;DHT22;52402;52.670;6.750;2023-11-19T04:44:17;11.40;99.90
60293;DHT22;52402;52.670;6.750;2023-11-19T04:46:46;11.30;99.90
60293;DHT22;52402;52.670;6.750;2023-11-19T04:49:14;11.40;99.90
60293;DHT22;52402;52.670;6.750;2023-11-19T04:51:51;11.30;99.90
60293;DHT22;52402;52.670;6.750;2023-11-19T04:54:21;11.30;99.90
60293;DHT22;52402;52.670;6.750;2023-11-19T04:56:47;11.30;99.90
60293;DHT22;52402;52.670;6.750;2023-11-19T04:59:13;11.30;99.90
60293;DHT22;52402;52.670;6.750;2023-11-19T05:01:39;11.30;99.90
60293;DHT22;52402;52.670;6.750;2023-11-19T05:04:04;11.30;99.90
60293;DHT22;52402;52.670;6.750;2023-11-19T05:06:31;11.30;99.90
60293;DHT22;52402;52.670;6.750;2023-11-19T05:09:00;11.30;99.90
60293;DHT22;52402;52.670;6.750;2023-11-19T05:11:27;11.30;99.90
60293;DHT22;52402;52.670;6.750;2023-11-19T05:13:54;11.40;99.90
60293;DHT22;52402;52.670;6.750;2023-11-19T05:16:19;11.40;99.90
60293;DHT22;52402;52.670;6.750;2023-11-19T05:18:50;11.40;99.90
60293;DHT22;52402;52.670;6.750;2023-11-19T05:21:16;11.40;99.90
60293;DHT22;52402;52.670;6.750;2023-11-19T05:23:43;11.40;99.90
60293;DHT22;52402;52.670;6.750;2023-11-19T05:26:22;11.40;99.90
60293;DHT22;52402;52.670;6.750;2023-11-19T05:28:48;11.40;99.90
60293;DHT22;52402;52.670;6.750;2023-11-19T05:31:15;11.40;99.90
60293;DHT22;52402;52.670;6.750;2023-11-19T05:33:41;11.40;99.90
60293;DHT22;52402;52.670;6.750;2023-11-19T05:36:06;11.40;99.90
60293;DHT22;52402;52.670;6.750;2023-11-19T05:38:34;11.50;99.90
60293;DHT22;52402;52.670;6.750;2023-11-19T05:40:59;11.40;99.90
60293;DHT22;52402;52.670;6.750;2023-11-19T05:43:25;11.40;99.90
60293;DHT22;52402;52.670;6.750;2023-11-19T05:45:50;11.40;99.90
60293;DHT22;52402;52.670;6.750;2023-11-19T05:48:16;11.40;99.90
60293;DHT22;52402;52.670;6.750;2023-11-19T05:50:42;11.40;99.90
60293;DHT22;52402;52.670;6.750;2023-11-19T05:53:08;11.40;99.90
60293;DHT22;52402;52.670;6.750;2023-11-19T05:55:38;11.40;99.90
60293;DHT22;52402;52.670;6.750;2023-11-19T05:58:11;11.40;99.90
60293;DHT22;52402;52.670;6.750;2023-11-19T06:00:40;11.40;99.90
60293;DHT22;52402;52.670;6.750;2023-11-19T06:03:07;11.40;99.90
60293;DHT22;52402;52.670;6.750;2023-11-19T06:05:33;11.40;99.90
60293;DHT22;52402;52.670;6.750;2023-11-19T06:07:58;11.40;99.90
60293;DHT22;52402;52.670;6.750;2023-11-19T06:10:24;11.40;99.90
60293;DHT22;52402;52.670;6.750;2023-11-19T06:12:59;11.40;99.90
60293;DHT22;52402;52.670;6.750;2023-11-19T06:15:26;11.40;99.90
60293;DHT22;52402;52.670;6.750;2023-11-19T06:17:52;11.30;99.90
60293;DHT22;52402;52.670;6.750;2023-11-19T06:20:18;11.30;99.90
60293;DHT22;52402;52.670;6.750;2023-11-19T06:22:45;11.30;99.90
60293;DHT22;52402;52.670;6.750;2023-11-19T06:25:11;11.30;99.90
60293;DHT22;52402;52.670;6.750;2023-11-19T06:27:37;11.30;99.90
60293;DHT22;52402;52.670;6.750;2023-11-19T06:30:03;11.30;99.90
60293;DHT22;52402;52.670;6.750;2023-11-19T06:32:29;11.20;99.90
60293;DHT22;52402;52.670;6.750;2023-11-19T06:34:55;11.10;99.90
60293;DHT22;52402;52.670;6.750;2023-11-19T06:37:20;11.10;99.90
60293;DHT22;52402;52.670;6.750;2023-11-19T06:39:46;11.10;99.90
60293;DHT22;52402;52.670;6.750;2023-11-19T06:42:11;11.10;99.90
60293;DHT22;52402;52.670;6.750;2023-11-19T06:44:37;11.10;99.90
60293;DHT22;52402;52.670;6.750;2023-11-19T06:47:03;11.10;99.90
60293;DHT22;52402;52.670;6.750;2023-11-19T06:49:28;11.00;99.90
60293;DHT22;52402;52.670;6.750;2023-11-19T06:51:54;11.10;99.90
60293;DHT22;52402;52.670;6.750;2023-11-19T06:54:19;11.10;99.90
60293;DHT22;52402;52.670;6.750;2023-11-19T06:56:45;11.10;99.90
60293;DHT22;52402;52.670;6.750;2023-11-19T06:59:10;11.10;99.90
60293;DHT22;52402;52.670;6.750;2023-11-19T07:01:36;11.10;99.90
60293;DHT22;52402;52.670;6.750;2023-11-19T07:04:03;11.10;99.90
60293;DHT22;52402;52.670;6.750;2023-11-19T07:06:35;11.10;99.90
60293;DHT22;52402;52.670;6.750;2023-11-19T07:09:01;11.00;99.90
60293;DHT22;52402;52.670;6.750;2023-11-19T07:11:35;11.00;99.90
60293;DHT22;52402;52.670;6.750;2023-11-19T07:14:02;11.00;99.90
60293;DHT22;52402;52.670;6.750;2023-11-19T07:16:28;11.00;99.90
60293;DHT22;52402;52.670;6.750;2023-11-19T07:18:53;10.90;99.90
60293;DHT22;52402;52.670;6.750;2023-11-19T07:21:19;11.00;99.90
60293;DHT22;52402;52.670;6.750;2023-11-19T07:23:46;10.90;99.90
60293;DHT22;52402;52.670;6.750;2023-11-19T07:26:12;10.90;99.90
60293;DHT22;52402;52.670;6.750;2023-11-19T07:28:40;10.90;99.90
60293;DHT22;52402;52.670;6.750;2023-11-19T07:31:06;10.90;99.90
60293;DHT22;52402;52.670;6.750;2023-11-19T07:33:35;10.80;99.90
60293;DHT22;52402;52.670;6.750;2023-11-19T07:36:00;10.90;99.90
60293;DHT22;52402;52.670;6.750;2023-11-19T07:38:26;10.90;99.90
60293;DHT22;52402;52.670;6.750;2023-11-19T07:40:52;10.90;99.90
60293;DHT22;52402;52.670;6.750;2023-11-19T07:43:17;10.90;99.90
60293;DHT22;52402;52.670;6.750;2023-11-19T07:45:43;10.90;99.90
60293;DHT22;52402;52.670;6.750;2023-11-19T07:48:12;10.90;99.90
60293;DHT22;52402;52.670;6.750;2023-11-19T07:50:39;10.90;99.90
60293;DHT22;52402;52.670;6.750;2023-11-19T07:53:06;10.90;99.90
60293;DHT22;52402;52.670;6.750;2023-11-19T07:55:33;10.90;99.90
60293;DHT22;52402;52.670;6.750;2023-11-19T07:57:58;10.90;99.90
60293;DHT22;52402;52.670;6.750;2023-11-19T08:00:24;11.00;99.90
60293;DHT22;52402;52.670;6.750;2023-11-19T08:02:49;11.00;99.90
60293;DHT22;52402;52.670;6.750;2023-11-19T08:05:15;11.10;99.90
60293;DHT22;52402;52.670;6.750;2023-11-19T08:07:41;11.10;99.90
60293;DHT22;52402;52.670;6.750;2023-11-19T08:10:07;11.10;99.90
60293;DHT22;52402;52.670;6.750;2023-11-19T08:12:35;11.10;99.90
60293;DHT22;52402;52.670;6.750;2023-11-19T08:15:02;11.10;99.90
60293;DHT22;52402;52.670;6.750;2023-11-19T08:17:28;11.10;99.90
60293;DHT22;52402;52.670;6.750;2023-11-19T08:19:53;11.10;99.90
60293;DHT22;52402;52.670;6.750;2023-11-19T08:22:19;11.20;99.90
60293;DHT22;52402;52.670;6.750;2023-11-19T08:24:44;11.10;99.90
60293;DHT22;52402;52.670;6.750;2023-11-19T08:27:10;11.20;99.90
60293;DHT22;52402;52.670;6.750;2023-11-19T08:29:36;11.20;99.90
60293;DHT22;52402;52.670;6.750;2023-11-19T08:32:01;11.20;99.90
60293;DHT22;52402;52.670;6.750;2023-11-19T08:34:29;11.20;99.90
60293;DHT22;52402;52.670;6.750;2023-11-19T08:36:54;11.30;99.90
60293;DHT22;52402;52.670;6.750;2023-11-19T08:39:21;11.20;99.90
60293;DHT22;52402;52.670;6.750;2023-11-19T08:41:47;11.10;99.90
60293;DHT22;52402;52.670;6.750;2023-11-19T08:44:16;11.10;99.90
60293;DHT22;52402;52.670;6.750;2023-11-19T08:46:48;11.00;99.90
60293;DHT22;52402;52.670;6.750;2023-11-19T08:49:14;11.00;99.90
60293;DHT22;52402;52.670;6.750;2023-11-19T08:51:40;11.00;99.90
60293;DHT22;52402;52.670;6.750;2023-11-19T08:54:07;11.00;99.90
60293;DHT22;52402;52.670;6.750;2023-11-19T08:56:32;11.10;99.90
60293;DHT22;52402;52.670;6.750;2023-11-19T08:59:00;11.10;99.90
60293;DHT22;52402;52.670;6.750;2023-11-19T09:01:25;11.10;99.90
60293;DHT22;52402;52.670;6.750;2023-11-19T09:03:51;11.20;99.90
60293;DHT22;52402;52.670;6.750;2023-11-19T09:06:17;11.20;99.90
60293;DHT22;52402;52.670;6.750;2023-11-19T09:08:43;11.20;99.90
60293;DHT22;52402;52.670;6.750;2023-11-19T09:11:09;11.20;99.90
60293;DHT22;52402;52.670;6.750;2023-11-19T09:13:35;11.30;99.90
60293;DHT22;52402;52.670;6.750;2023-11-19T09:16:01;11.30;99.90
60293;DHT22;52402;52.670;6.750;2023-11-19T09:18:30;11.40;99.90
60293;DHT22;52402;52.670;6.750;2023-11-19T09:21:01;11.40;99.90
60293;DHT22;52402;52.670;6.750;2023-11-19T09:23:28;11.40;99.90
60293;DHT22;52402;52.670;6.750;2023-11-19T09:25:58;11.40;99.90
60293;DHT22;52402;52.670;6.750;2023-11-19T09:28:25;11.50;99.90
60293;DHT22;52402;52.670;6.750;2023-11-19T09:30:50;11.50;99.90
60293;DHT22;52402;52.670;6.750;2023-11-19T09:33:16;11.50;99.90
60293;DHT22;52402;52.670;6.750;2023-11-19T09:35:43;11.50;99.90
60293;DHT22;52402;52.670;6.750;2023-11-19T09:38:08;11.60;99.90
60293;DHT22;52402;52.670;6.750;2023-11-19T09:40:34;11.70;99.90
60293;DHT22;52402;52.670;6.750;2023-11-19T09:43:00;11.70;99.90
60293;DHT22;52402;52.670;6.750;2023-11-19T09:45:29;11.70;99.90
60293;DHT22;52402;52.670;6.750;2023-11-19T09:48:00;11.70;99.90
60293;DHT22;52402;52.670;6.750;2023-11-19T09:50:26;11.80;99.90
60293;DHT22;52402;52.670;6.750;2023-11-19T09:52:51;11.80;99.90
60293;DHT22;52402;52.670;6.750;2023-11-19T09:55:17;11.80;99.90
60293;DHT22;52402;52.670;6.750;2023-11-19T09:57:44;11.80;99.90
60293;DHT22;52402;52.670;6.750;2023-11-19T10:00:10;11.90;99.90
60293;DHT22;52402;52.670;6.750;2023-11-19T10:02:40;11.90;99.90
60293;DHT22;52402;52.670;6.750;2023-11-19T10:05:07;11.90;99.90
60293;DHT22;52402;52.670;6.750;2023-11-19T10:07:34;11.90;99.90
60293;DHT22;52402;52.670;6.750;2023-11-19T10:10:03;12.00;99.90
60293;DHT22;52402;52.670;6.750;2023-11-19T10:12:32;12.00;99.90
60293;DHT22;52402;52.670;6.750;2023-11-19T10:14:59;12.00;99.90
60293;DHT22;52402;52.670;6.750;2023-11-19T10:17:42;12.10;99.90
60293;DHT22;52402;52.670;6.750;2023-11-19T10:20:08;12.10;99.90
60293;DHT22;52402;52.670;6.750;2023-11-19T10:22:37;12.10;99.90
60293;DHT22;52402;52.670;6.750;2023-11-19T10:25:03;12.10;99.90
60293;DHT22;52402;52.670;6.750;2023-11-19T10:27:29;12.10;99.90
60293;DHT22;52402;52.670;6.750;2023-11-19T10:29:59;12.10;99.90
60293;DHT22;52402;52.670;6.750;2023-11-19T10:32:25;12.00;99.90
60293;DHT22;52402;52.670;6.750;2023-11-19T10:34:50;12.00;99.90
60293;DHT22;52402;52.670;6.750;2023-11-19T10:37:28;12.00;99.90
60293;DHT22;52402;52.670;6.750;2023-11-19T10:39:55;11.90;99.90
60293;DHT22;52402;52.670;6.750;2023-11-19T10:42:21;11.90;99.90
60293;DHT22;52402;52.670;6.750;2023-11-19T10:44:47;11.80;99.90
60293;DHT22;52402;52.670;6.750;2023-11-19T10:47:14;11.90;99.90
60293;DHT22;52402;52.670;6.750;2023-11-19T10:49:40;11.90;99.90
60293;DHT22;52402;52.670;6.750;2023-11-19T10:52:08;11.90;99.90
60293;DHT22;52402;52.670;6.750;2023-11-19T10:54:37;12.00;99.90
60293;DHT22;52402;52.670;6.750;2023-11-19T10:57:09;12.00;99.90
60293;DHT22;52402;52.670;6.750;2023-11-19T10:59:35;12.10;99.90
60293;DHT22;52402;52.670;6.750;2023-11-19T11:02:08;12.20;99.90
60293;DHT22;52402;52.670;6.750;2023-11-19T11:04:39;12.30;99.90
60293;DHT22;52402;52.670;6.750;2023-11-19T11:07:05;12.40;99.90
60293;DHT22;52402;52.670;6.750;2023-11-19T11:09:31;12.40;99.90
60293;DHT22;52402;52.670;6.750;2023-11-19T11:11:58;12.40;99.90
60293;DHT22;52402;52.670;6.750;2023-11-19T11:14:24;12.40;99.90
60293;DHT22;52402;52.670;6.750;2023-11-19T11:16:51;12.40;99.90
60293;DHT22;52402;52.670;6.750;2023-11-19T11:19:18;12.50;99.90
60293;DHT22;52402;52.670;6.750;2023-11-19T11:21:50;12.50;99.90
60293;DHT22;52402;52.670;6.750;2023-11-19T11:27:41;12.50;99.90
60293;DHT22;52402;52.670;6.750;2023-11-19T11:32:50;12.50;99.90
60293;DHT22;52402;52.670;6.750;2023-11-19T11:36:06;12.50;99.90
60293;DHT22;52402;52.670;6.750;2023-11-19T11:38:23;12.50;99.90
60293;DHT22;52402;52.670;6.750;2023-11-19T11:41:14;12.40;99.90
60293;DHT22;52402;52.670;6.750;2023-11-19T11:43:49;12.30;99.90
60293;DHT22;52402;52.670;6.750;2023-11-19T11:49:01;12.10;99.90
60293;DHT22;52402;52.670;6.750;2023-11-19T11:57:11;11.80;99.90
60293;DHT22;52402;52.670;6.750;2023-11-19T12:02:08;11.80;99.90
60293;DHT22;52402;52.670;6.750;2023-11-19T12:04:35;11.80;99.90
60293;DHT22;52402;52.670;6.750;2023-11-19T12:07:09;11.90;99.90
60293;DHT22;52402;52.670;6.750;2023-11-19T12:09:42;12.00;99.90
60293;DHT22;52402;52.670;6.750;2023-11-19T12:12:21;12.10;99.90
60293;DHT22;52402;52.670;6.750;2023-11-19T12:15:03;12.10;99.90
60293;DHT22;52402;52.670;6.750;2023-11-19T12:17:37;12.10;99.90
60293;DHT22;52402;52.670;6.750;2023-11-19T12:20:06;12.00;99.90
60293;DHT22;52402;52.670;6.750;2023-11-19T12:22:40;12.00;99.90
60293;DHT22;52402;52.670;6.750;2023-11-19T12:25:07;12.00;99.90
60293;DHT22;52402;52.670;6.750;2023-11-19T12:27:34;12.00;99.90
60293;DHT22;52402;52.670;6.750;2023-11-19T12:30:00;12.10;99.90
60293;DHT22;52402;52.670;6.750;2023-11-19T12:32:44;12.10;99.90
60293;DHT22;52402;52.670;6.750;2023-11-19T12:35:12;12.10;99.90
60293;DHT22;52402;52.670;6.750;2023-11-19T12:37:45;12.10;99.90
60293;DHT22;52402;52.670;6.750;2023-11-19T12:40:13;12.10;99.90
60293;DHT22;52402;52.670;6.750;2023-11-19T12:42:42;12.10;99.90
60293;DHT22;52402;52.670;6.750;2023-11-19T12:45:07;12.10;99.90
60293;DHT22;52402;52.670;6.750;2023-11-19T12:47:44;12.10;99.90
60293;DHT22;52402;52.670;6.750;2023-11-19T12:50:18;12.10;99.90
60293;DHT22;52402;52.670;6.750;2023-11-19T12:52:55;12.20;99.90
60293;DHT22;52402;52.670;6.750;2023-11-19T12:55:28;12.20;99.90
60293;DHT22;52402;52.670;6.750;2023-11-19T12:57:54;12.20;99.90
60293;DHT22;52402;52.670;6.750;2023-11-19T13:00:22;12.20;99.90
60293;DHT22;52402;52.670;6.750;2023-11-19T13:02:52;12.20;99.90
60293;DHT22;52402;52.670;6.750;2023-11-19T13:07:58;12.20;99.90
60293;DHT22;52402;52.670;6.750;2023-11-19T13:10:27;12.20;99.90
60293;DHT22;52402;52.670;6.750;2023-11-19T13:13:07;12.20;99.90
60293;DHT22;52402;52.670;6.750;2023-11-19T13:15:36;12.20;99.90
60293;DHT22;52402;52.670;6.750;2023-11-19T13:18:02;12.20;99.90
60293;DHT22;52402;52.670;6.750;2023-11-19T13:20:28;12.20;99.90
60293;DHT22;52402;52.670;6.750;2023-11-19T13:25:27;12.10;99.90
60293;DHT22;52402;52.670;6.750;2023-11-19T13:27:53;12.10;99.90
60293;DHT22;52402;52.670;6.750;2023-11-19T13:30:22;12.10;99.90
60293;DHT22;52402;52.670;6.750;2023-11-19T13:32:49;12.00;99.90
60293;DHT22;52402;52.670;6.750;2023-11-19T13:35:15;12.00;99.90
60293;DHT22;52402;52.670;6.750;2023-11-19T13:37:41;12.00;99.90
60293;DHT22;52402;52.670;6.750;2023-11-19T13:40:10;12.00;99.90
60293;DHT22;52402;52.670;6.750;2023-11-19T13:42:38;12.00;99.90
60293;DHT22;52402;52.670;6.750;2023-11-19T13:47:36;11.90;99.90
60293;DHT22;52402;52.670;6.750;2023-11-19T13:50:02;11.80;99.90
60293;DHT22;52402;52.670;6.750;2023-11-19T13:52:31;11.80;99.90
60293;DHT22;52402;52.670;6.750;2023-11-19T13:54:57;11.70;99.90
60293;DHT22;52402;52.670;6.750;2023-11-19T13:57:22;11.60;99.90
60293;DHT22;52402;52.670;6.750;2023-11-19T13:59:48;11.60;99.90
60293;DHT22;52402;52.670;6.750;2023-11-19T14:02:13;11.60;99.90
60293;DHT22;52402;52.670;6.750;2023-11-19T14:04:41;11.50;99.90
60293;DHT22;52402;52.670;6.750;2023-11-19T14:07:07;11.50;99.90
60293;DHT22;52402;52.670;6.750;2023-11-19T14:09:32;11.50;99.90
60293;DHT22;52402;52.670;6.750;2023-11-19T14:12:00;11.50;99.90
60293;DHT22;52402;52.670;6.750;2023-11-19T14:14:28;11.50;99.90
60293;DHT22;52402;52.670;6.750;2023-11-19T14:16:56;11.40;99.90
60293;DHT22;52402;52.670;6.750;2023-11-19T14:19:21;11.40;99.90
60293;DHT22;52402;52.670;6.750;2023-11-19T14:21:50;11.40;99.90
60293;DHT22;52402;52.670;6.750;2023-11-19T14:24:18;11.40;99.90
60293;DHT22;52402;52.670;6.750;2023-11-19T14:26:48;11.30;99.90
60293;DHT22;52402;52.670;6.750;2023-11-19T14:29:15;11.30;99.90
60293;DHT22;52402;52.670;6.750;2023-11-19T14:31:41;11.30;99.90
60293;DHT22;52402;52.670;6.750;2023-11-19T14:34:06;11.30;99.90
60293;DHT22;52402;52.670;6.750;2023-11-19T14:36:32;11.20;99.90
60293;DHT22;52402;52.670;6.750;2023-11-19T14:38:58;11.20;99.90
60293;DHT22;52402;52.670;6.750;2023-11-19T14:41:24;11.20;99.90
60293;DHT22;52402;52.670;6.750;2023-11-19T14:43:50;11.10;99.90
60293;DHT22;52402;52.670;6.750;2023-11-19T14:46:16;11.10;99.90
60293;DHT22;52402;52.670;6.750;2023-11-19T14:48:41;11.10;99.90
60293;DHT22;52402;52.670;6.750;2023-11-19T14:51:07;11.10;99.90
60293;DHT22;52402;52.670;6.750;2023-11-19T14:53:34;11.00;99.90
60293;DHT22;52402;52.670;6.750;2023-11-19T14:56:02;11.00;99.90
60293;DHT22;52402;52.670;6.750;2023-11-19T14:58:30;11.00;99.90
60293;DHT22;52402;52.670;6.750;2023-11-19T15:00:58;11.00;99.90
60293;DHT22;52402;52.670;6.750;2023-11-19T15:03:31;10.90;99.90
60293;DHT22;52402;52.670;6.750;2023-11-19T15:05:58;10.90;99.90
60293;DHT22;52402;52.670;6.750;2023-11-19T15:08:23;10.80;99.90
60293;DHT22;52402;52.670;6.750;2023-11-19T15:10:51;10.80;99.90
60293;DHT22;52402;52.670;6.750;2023-11-19T15:13:18;10.80;99.90
60293;DHT22;52402;52.670;6.750;2023-11-19T15:15:43;10.80;99.90
60293;DHT22;52402;52.670;6.750;2023-11-19T15:18:09;10.80;99.90
60293;DHT22;52402;52.670;6.750;2023-11-19T15:20:37;10.80;99.90
60293;DHT22;52402;52.670;6.750;2023-11-19T15:23:03;10.80;99.90
60293;DHT22;52402;52.670;6.750;2023-11-19T15:25:29;10.80;99.90
60293;DHT22;52402;52.670;6.750;2023-11-19T15:27:57;10.80;99.90
60293;DHT22;52402;52.670;6.750;2023-11-19T15:30:22;10.80;99.90
60293;DHT22;52402;52.670;6.750;2023-11-19T15:32:48;10.80;99.90
60293;DHT22;52402;52.670;6.750;2023-11-19T15:35:13;10.80;99.90
60293;DHT22;52402;52.670;6.750;2023-11-19T15:37:39;10.70;99.90
60293;DHT22;52402;52.670;6.750;2023-11-19T15:40:07;10.80;99.90
60293;DHT22;52402;52.670;6.750;2023-11-19T15:42:34;10.70;99.90
60293;DHT22;52402;52.670;6.750;2023-11-19T15:44:59;10.70;99.90
60293;DHT22;52402;52.670;6.750;2023-11-19T15:47:27;10.70;99.90
60293;DHT22;52402;52.670;6.750;2023-11-19T15:49:53;10.70;99.90
60293;DHT22;52402;52.670;6.750;2023-11-19T15:52:21;10.70;99.90
60293;DHT22;52402;52.670;6.750;2023-11-19T15:54:47;10.70;99.90
60293;DHT22;52402;52.670;6.750;2023-11-19T15:57:13;10.70;99.90
60293;DHT22;52402;52.670;6.750;2023-11-19T15:59:41;10.70;99.90